Terminal Aerodrome Forecast
Issued by NWS

Home | Current Version | Previous Version | Text Only | Print | Product List | Glossary On
Versions: 1 2 3 4 5 6 7 8 9 10 11 12 13 14 15 16 17 18 19 20 21
297
FTUS42 KTAE 191406 AAA
TAFVLD
TAF AMD
KVLD 191406Z 1914/2012 12003KT 5SM BR OVC003
      TEMPO 1914/1916 2SM BR SCT003 BKN015
     FM191600 VRB04KT P6SM SCT006 BKN015
     FM191800 15006KT P6SM BKN050=

USA.gov is the U.S. government's official web portal to all federal, state and local government web resources and services.